Terminal Aerodrome Forecast
Issued by NWS Topeka, KS

Home | Current Version | Previous Version | Graphics & Text | Print | Product List | Glossary On
Versions: 1 2 3 4 5 6 7 8 9 10 11 12
000
FTUS43 KTOP 191700
TAFTOP
TAF
KTOP 191722Z 1918/2018 18010KT P6SM SCT035
     FM200100 17003KT P6SM SCT140
     FM201500 18012G18KT P6SM FEW035=

USA.gov is the U.S. government's official web portal to all federal, state and local government web resources and services.